Nearby METAR Reports

 

KMTN - Baltimore/Martin, Maryland, USA
Distance from station: SSE 8mi, 13km
Updated: Tue, 21-Oct-2014 1:45pm EDT
Partly cloudy
Partly cloudy
 Wind from SE
Wind: SE 6 mph , 9 km/h
Temperature: 64°F , 18°C
Dew Point: 55°F , 13°C
Humidity: 73%
Barometer: 29.84 inHg , 1010.5 hPa
Clouds: Partly cloudy
Visibility: 10 miles , 16 km
Cloud details: Partly cloudy 4000 ft
2014/10/21 17:45 KMTN 211745Z 13005KT 10SM SCT040 18/13 A2984
KDMH - Baltimore/Dwntwn, Maryland, USA
Distance from station: SW 12mi, 19km
Updated: Tue, 21-Oct-2014 1:54pm EDT

 
Temperature: 66°F , 19°C
Dew Point: 46°F , 8°C
Humidity: 49%
Barometer: 29.82 inHg , 1009.8 hPa
2014/10/21 17:54 KDMH 211754Z AUTO 19/08 A2982 RMK AO1 SLP097 T01940083 10206 20122 58019
 
KBWI - Balto/Wash Intl, Maryland, USA
Distance from station: SSW 20mi, 33km
Updated: Tue, 21-Oct-2014 1:54pm EDT
Partly cloudy
Partly cloudy
 Wind from W
Wind: W 9 mph , 15 km/h
Temperature: 68°F , 20°C
Dew Point: 48°F , 9°C
Humidity: 49%
Barometer: 29.81 inHg , 1009.5 hPa
Clouds: Partly cloudy
Visibility: 10 miles , 16 km
Cloud details: Partly cloudy 4700 ft
Partly cloudy 5500 ft
2014/10/21 17:54 KBWI 211754Z 26008KT 10SM SCT047 SCT055 20/09 A2981 RMK AO2 SLP095 T02000089 10206 20078 58019
KDMW - Carroll Cnty, Maryland, USA
Distance from station: WNW 30mi, 48km
Updated: Tue, 21-Oct-2014 2:10pm EDT
Nearby thunderstorm, Clear
Nearby thunderstorm, Clear
 Wind from NW
Wind: NW 5 mph , 7 km/h
Temperature: 63°F , 17°C
Dew Point: 48°F , 9°C
Humidity: 59%
Barometer: 29.83 inHg , 1010.2 hPa
Summary: Nearby Thunderstorm
Clouds: Clear
Visibility: 10 miles , 16 km
2014/10/21 18:10 KDMW 211810Z AUTO 32004KT 10SM VCTS CLR 17/09 A2983 RMK AO2
 
KNAK - Annapolis/Naval, Maryland, USA
Distance from station: S 30mi, 48km
Updated: Tue, 21-Oct-2014 1:54pm EDT
Few Clouds
Few Clouds
 Wind from SE
Wind: SE 8 mph , 13 km/h
Temperature: 63°F , 17°C
Dew Point: 52°F , 11°C
Humidity: 68%
Barometer: 29.82 inHg , 1009.8 hPa
Clouds: Few Clouds
Visibility: 10 miles , 16 km
Cloud details: Few Clouds 6000 ft
2014/10/21 17:54 KNAK 211754Z AUTO 13007KT 10SM FEW060 17/11 A2982 RMK AO2 SLP099 T01720111 10183 20117 58019
KW29 - Stevensville, Maryland, USA
Distance from station: SSE 31mi, 50km
Updated: Tue, 21-Oct-2014 2:08pm EDT

 Wind from WNW
Wind: WNW 5 mph , 7 km/h
Temperature: 68°F , 20°C
Dew Point: 46°F , 8°C
Humidity: 46%
Barometer: 29.82 inHg , 1009.8 hPa
Visibility: 10 miles , 16 km
2014/10/21 18:08 KW29 211808Z AUTO 29004KT 10SM 20/08 A2982 RMK AO1 LTG DSNT NW
 
KCGS - College Park, Maryland, USA
Distance from station: SW 38mi, 61km
Updated: Tue, 21-Oct-2014 2:05pm EDT
Mostly cloudy
Mostly cloudy
 Wind from WNW
Wind: WNW 5 mph , 7 km/h
Temperature: 68°F , 20°C
Dew Point: 46°F , 8°C
Humidity: 46%
Barometer: 29.82 inHg , 1009.8 hPa
Clouds: Mostly cloudy
Visibility: 10 miles , 16 km
Cloud details: Mostly cloudy 4600 ft
2014/10/21 18:05 KCGS 211805Z AUTO 29004KT 10SM BKN046 20/08 A2982 RMK AO1
KGAI - Gaithersburg, Maryland, USA
Distance from station: WSW 40mi, 65km
Updated: Tue, 21-Oct-2014 2:15pm EDT
Mostly cloudy
Mostly cloudy
 Wind from N
Wind: N 3 mph , 6 km/h
Temperature: 64°F , 18°C
Dew Point: 46°F , 8°C
Humidity: 52%
Barometer: 29.85 inHg , 1010.8 hPa
Clouds: Mostly cloudy
Visibility: 10 miles , 16 km
Cloud details: Partly cloudy 4300 ft
Mostly cloudy 5000 ft
Mostly cloudy 12000 ft
2014/10/21 18:15 KGAI 211815Z 36003KT 10SM SCT043 BKN050 BKN120 18/08 A2985 RMK AO1
 
KTHV - York, Pennsylvania, USA
Distance from station: NNW 40mi, 65km
Updated: Tue, 21-Oct-2014 1:53pm EDT
Mostly cloudy
Mostly cloudy
 Wind from varies
Wind: varies 5 mph , 7 km/h
Temperature: 64°F , 18°C
Dew Point: 50°F , 10°C
Humidity: 60%
Barometer: 29.83 inHg , 1010.2 hPa
Clouds: Mostly cloudy
Visibility: 10 miles , 16 km
Cloud details: Few Clouds 2900 ft
Few Clouds 3600 ft
Mostly cloudy 4800 ft
2014/10/21 17:53 KTHV 211753Z AUTO VRB04KT 10SM FEW029 FEW036 BKN048 18/10 A2983 RMK AO2 SLP102 T01780100 10183 20061 58013
KFDK - Frederick, Maryland, USA
Distance from station: W 47mi, 75km
Updated: Tue, 21-Oct-2014 1:45pm EDT
Mostly cloudy
Mostly cloudy
 Wind from W
Wind: W 6 mph , 9 km/h
Temperature: 70°F , 21°C
Dew Point: 46°F , 8°C
Humidity: 43%
Barometer: 29.85 inHg , 1010.8 hPa
Clouds: Mostly cloudy
Visibility: 10 miles , 16 km
Cloud details: Mostly cloudy 12000 ft
2014/10/21 17:45 KFDK 211745Z 27005KT 10SM BKN120 21/08 A2985
 
KESN - Easton/Newnam, Maryland, USA
Distance from station: SSE 48mi, 78km
Updated: Tue, 21-Oct-2014 1:53pm EDT
Few Clouds
Few Clouds
 Wind from NW
Wind: NW 5 mph , 7 km/h
Temperature: 72°F , 22°C
Dew Point: 48°F , 9°C
Humidity: 44%
Barometer: 29.85 inHg , 1010.8 hPa
Clouds: Few Clouds
Visibility: 10 miles , 16 km
Cloud details: Few Clouds 4700 ft
2014/10/21 17:53 KESN 211753Z 32004KT 10SM FEW047 22/09 A2985
KDCA - Washington/Natl, Washington D.c., USA
Distance from station: SW 49mi, 79km
Updated: Tue, 21-Oct-2014 1:52pm EDT
Partly cloudy
Partly cloudy
 Wind from calm
Wind: Calm
Temperature: 72°F , 22°C
Dew Point: 45°F , 7°C
Humidity: 38%
Barometer: 29.82 inHg , 1009.8 hPa
Clouds: Partly cloudy
Visibility: 10 miles , 16 km
Cloud details: Partly cloudy 5000 ft
Partly cloudy 12000 ft
2014/10/21 17:52 KDCA 211752Z 00000KT 10SM SCT050 SCT120 22/07 A2982 RMK AO2 SLP099 T02220072 10228 20122 58019
 
KLNS - Lancaster, Pennsylvania, USA
Distance from station: N 49mi, 79km
Updated: Tue, 21-Oct-2014 1:53pm EDT
Mostly cloudy
Mostly cloudy
 Wind from NNW
Wind: NNW 7 mph , 11 km/h
Temperature: 63°F , 17°C
Dew Point: 48°F , 9°C
Humidity: 59%
Barometer: 29.83 inHg , 1010.2 hPa
Clouds: Mostly cloudy
Visibility: 10 miles , 16 km
Cloud details: Partly cloudy 3600 ft
Mostly cloudy 5000 ft
2014/10/21 17:53 KLNS 211753Z 34006KT 10SM SCT036 BKN050 17/09 A2983 RMK AO2 SLP100 T01670094 10172 20089 58016
KILG - Wilmington, Delaware, USA
Distance from station: ENE 50mi, 81km
Updated: Tue, 21-Oct-2014 1:51pm EDT
Overcast
Overcast
 Wind from SE
Wind: SE 3 mph , 6 km/h
Temperature: 68°F , 20°C
Dew Point: 50°F , 10°C
Humidity: 53%
Barometer: 29.82 inHg , 1009.8 hPa
Clouds: Overcast
Visibility: 10 miles , 16 km
Cloud details: Overcast 4500 ft
2014/10/21 17:51 KILG 211751Z 14003KT 10SM OVC045 20/10 A2982 RMK AO2 SLP099 T02000100 10200 20094 58021